Time;durP1;ratioP1;P1;durP2;ratioP2;P2;SDS_P1;SDS_P2;PMS_P1;PMS_P2;Temp;Humidity;BMP_temperature;BMP_pressure;BME280_temperature;BME280_humidity;BME280_pressure;Samples;Min_cycle;Max_cycle;Signal;HPM_P1;HPM_P2
2021/12/28 00:01:28;;;;;;;0.30;0.30;;;;;;;18.48;40.84;99229.34;5107546;28;20047;-34
2021/12/28 00:03:54;;;;;;;0.30;0.30;;;;;;;18.47;40.58;99231.31;5122810;28;20047;-32
2021/12/28 00:06:20;;;;;;;0.30;0.30;;;;;;;18.48;40.62;99221.09;5122447;28;20047;-33
2021/12/28 00:08:46;;;;;;;0.30;0.30;;;;;;;18.48;40.61;99223.84;5125342;28;20055;-34
2021/12/28 00:11:12;;;;;;;0.20;0.20;;;;;;;18.47;40.77;99217.53;5125870;28;20050;-31
2021/12/28 00:13:39;;;;;;;0.30;0.30;;;;;;;18.47;40.78;99223.03;5124382;28;20048;-31
2021/12/28 00:18:45;;;;;;;0.20;0.20;;;;;;;18.47;40.78;99213.94;5109734;28;20394;-31
2021/12/28 00:21:11;;;;;;;0.30;0.30;;;;;;;18.48;40.74;99207.31;5126219;28;20481;-31
2021/12/28 00:23:40;;;;;;;0.20;0.20;;;;;;;18.48;40.75;99207.31;5123978;28;20393;-31
2021/12/28 00:26:10;;;;;;;0.20;0.20;;;;;;;18.47;40.59;99195.47;5120491;28;20387;-31
2021/12/28 00:28:37;;;;;;;0.30;0.30;;;;;;;18.47;40.71;99184.44;5108071;28;20050;-31
2021/12/28 00:31:03;;;;;;;0.25;0.25;;;;;;;18.48;40.65;99182.50;5108218;28;20469;-32
2021/12/28 00:33:29;;;;;;;0.30;0.30;;;;;;;18.48;40.76;99182.50;5105230;28;20142;-33
2021/12/28 00:35:55;;;;;;;0.20;0.20;;;;;;;18.47;40.54;99183.63;5121877;28;20138;-32
2021/12/28 00:38:23;;;;;;;0.20;0.20;;;;;;;18.47;40.58;99184.44;5091914;28;20313;-31
2021/12/28 00:40:50;;;;;;;0.20;0.20;;;;;;;18.47;40.84;99183.63;5092474;28;20035;-31
2021/12/28 00:43:16;;;;;;;0.20;0.20;;;;;;;18.49;40.71;99173.13;5122039;28;20043;-31
2021/12/28 00:45:42;;;;;;;0.22;0.22;;;;;;;18.47;40.66;99164.34;5121176;28;20099;-31
2021/12/28 00:48:08;;;;;;;0.22;0.22;;;;;;;18.48;40.68;99175.06;5124384;28;20043;-31
2021/12/28 00:50:34;;;;;;;0.20;0.20;;;;;;;18.47;40.67;99173.41;5124521;28;20051;-35
2021/12/28 00:53:00;;;;;;;0.22;0.22;;;;;;;18.47;40.80;99170.66;5121730;28;20067;-34
2021/12/28 00:55:26;;;;;;;0.20;0.20;;;;;;;18.47;40.69;99169.84;5120586;28;20058;-33
2021/12/28 00:57:52;;;;;;;0.30;0.30;;;;;;;18.47;40.80;99172.59;5123637;28;20081;-33
2021/12/28 01:00:21;;;;;;;0.30;0.30;;;;;;;18.47;40.57;99172.59;5123554;28;20057;-32
2021/12/28 01:02:47;;;;;;;0.20;0.20;;;;;;;18.48;40.72;99168.72;5107257;28;20073;-33
2021/12/28 01:05:13;;;;;;;0.30;0.30;;;;;;;18.47;40.80;99167.09;5105331;28;20043;-32
2021/12/28 01:07:39;;;;;;;0.30;0.30;;;;;;;18.47;40.89;99159.63;5108461;28;20053;-32
2021/12/28 01:10:14;;;;;;;0.22;0.22;;;;;;;18.47;40.83;99165.16;5125660;28;20035;-33
2021/12/28 01:12:40;;;;;;;0.20;0.20;;;;;;;18.46;40.64;99157.22;5125857;27;20084;-31
2021/12/28 01:15:08;;;;;;;0.20;0.20;;;;;;;18.47;40.62;99162.38;5127780;28;20062;-32
2021/12/28 01:17:35;;;;;;;0.22;0.22;;;;;;;18.48;40.87;99160.44;5129519;28;20488;-32
2021/12/28 01:20:01;;;;;;;0.20;0.20;;;;;;;18.47;40.55;99161.59;5090237;28;20070;-33
2021/12/28 01:22:26;;;;;;;0.20;0.20;;;;;;;18.47;40.88;99167.09;5108548;28;20482;-33
2021/12/28 01:24:52;;;;;;;0.20;0.20;;;;;;;18.46;40.77;99147.00;5125915;28;20150;-33
2021/12/28 01:27:18;;;;;;;0.20;0.20;;;;;;;18.47;40.62;99156.88;5128368;28;20047;-32
2021/12/28 01:29:43;;;;;;;0.20;0.20;;;;;;;18.48;40.62;99150.25;5127610;28;20054;-33
2021/12/28 01:32:10;;;;;;;0.30;0.30;;;;;;;18.47;40.76;99148.59;5110939;28;20050;-32
2021/12/28 01:34:36;;;;;;;0.30;0.30;;;;;;;18.47;40.76;99145.84;5127151;28;20058;-32
2021/12/28 01:37:02;;;;;;;0.20;0.20;;;;;;;18.45;40.78;99145.38;5130564;28;20530;-32
2021/12/28 01:39:27;;;;;;;0.20;0.20;;;;;;;18.48;40.76;99150.25;5108575;28;20039;-32
2021/12/28 01:41:53;;;;;;;0.30;0.30;;;;;;;18.47;40.61;99140.34;5129436;28;20385;-33
2021/12/28 01:44:19;;;;;;;0.30;0.30;;;;;;;18.47;40.88;99136.78;5107188;28;20039;-33
2021/12/28 01:46:44;;;;;;;0.20;0.20;;;;;;;18.47;40.81;99139.53;5108781;28;20138;-33
2021/12/28 01:49:11;;;;;;;0.20;0.20;;;;;;;18.48;40.86;99143.91;5127964;28;20308;-33
2021/12/28 01:51:37;;;;;;;0.20;0.20;;;;;;;18.47;40.88;99134.81;5125393;28;20402;-33
2021/12/28 01:54:05;;;;;;;0.30;0.30;;;;;;;18.48;40.83;99138.38;5090735;28;20043;-33
2021/12/28 01:56:36;;;;;;;0.20;0.20;;;;;;;18.48;40.68;99138.38;5128849;28;20066;-33
2021/12/28 01:59:03;;;;;;;0.30;0.30;;;;;;;18.47;40.60;99140.34;5109857;28;20048;-33
2021/12/28 02:01:28;;;;;;;0.25;0.25;;;;;;;18.47;40.85;99134.00;5108556;28;20119;-33
2021/12/28 02:03:54;;;;;;;0.30;0.30;;;;;;;18.47;40.75;99128.50;5109445;28;20047;-34
2021/12/28 02:06:22;;;;;;;0.20;0.20;;;;;;;18.48;40.66;99141.16;5123514;28;20445;-33
2021/12/28 02:08:47;;;;;;;0.20;0.20;;;;;;;18.46;40.67;99124.94;5109053;28;20045;-33
2021/12/28 02:11:14;;;;;;;0.30;0.30;;;;;;;18.47;40.77;99126.56;5127511;28;20055;-31
2021/12/28 02:13:40;;;;;;;0.20;0.20;;;;;;;18.46;40.94;99124.94;5124534;28;20530;-34
2021/12/28 02:16:05;;;;;;;0.30;0.30;;;;;;;18.46;40.79;99119.44;5127006;28;20045;-31
2021/12/28 02:18:32;;;;;;;0.30;0.30;;;;;;;18.46;40.78;99127.69;5128496;27;20051;-33
2021/12/28 02:21:00;;;;;;;0.30;0.30;;;;;;;18.48;40.80;99121.84;5128962;28;20035;-33
2021/12/28 02:23:26;;;;;;;0.20;0.20;;;;;;;18.47;40.83;99114.72;5089294;28;20456;-33
2021/12/28 02:25:52;;;;;;;0.30;0.30;;;;;;;18.47;41.00;99117.47;5108837;28;20039;-33
2021/12/28 02:28:18;;;;;;;0.30;0.30;;;;;;;18.46;40.67;99113.91;5110083;28;20066;-33
2021/12/28 02:30:47;;;;;;;0.30;0.30;;;;;;;18.47;40.63;99121.03;5109910;28;20043;-34
2021/12/28 02:33:13;;;;;;;0.20;0.20;;;;;;;18.47;40.77;99114.72;5125054;28;20218;-37
2021/12/28 02:35:39;;;;;;;0.20;0.20;;;;;;;18.48;40.76;99116.34;5092691;28;20051;-35
2021/12/28 02:38:06;;;;;;;0.30;0.30;;;;;;;18.47;40.77;99107.25;5109954;28;20083;-35
2021/12/28 02:40:33;;;;;;;0.30;0.30;;;;;;;18.47;40.87;99112.78;5127149;28;20127;-33
2021/12/28 02:43:01;;;;;;;0.20;0.20;;;;;;;18.47;40.72;99107.25;5106961;28;20450;-33
2021/12/28 02:45:30;;;;;;;0.20;0.20;;;;;;;18.47;40.75;99106.44;5107001;28;20045;-33
2021/12/28 02:47:56;;;;;;;0.22;0.22;;;;;;;18.47;40.68;99107.25;5126285;28;20042;-33
2021/12/28 02:50:30;;;;;;;0.30;0.30;;;;;;;18.48;40.88;99108.06;5108175;28;20035;-32
2021/12/28 02:52:57;;;;;;;0.30;0.30;;;;;;;18.47;40.65;99099.00;5103776;28;20880;-34
2021/12/28 02:55:25;;;;;;;0.30;0.30;;;;;;;18.46;40.80;99097.38;5090606;28;20054;-31
2021/12/28 02:57:53;;;;;;;0.20;0.20;;;;;;;18.47;40.86;99093.47;5092912;28;20115;-33
2021/12/28 03:00:41;;;;;;;0.20;0.20;;;;;;;18.48;40.88;99099.81;5091963;28;20043;-31
2021/12/28 03:03:13;;;;;;;0.30;0.30;;;;;;;18.47;40.69;99089.91;5111026;28;20398;-33
2021/12/28 03:05:41;;;;;;;0.20;0.20;;;;;;;18.48;40.89;99097.03;5126916;28;20099;-32
2021/12/28 03:08:07;;;;;;;0.20;0.20;;;;;;;18.47;40.92;99076.13;5125351;28;20496;-32
2021/12/28 03:10:35;;;;;;;0.30;0.30;;;;;;;18.47;40.98;99079.69;5108079;28;20049;-33
2021/12/28 03:13:01;;;;;;;0.30;0.30;;;;;;;18.47;40.75;99076.94;5107429;28;20039;-32
2021/12/28 03:15:26;;;;;;;0.30;0.30;;;;;;;18.48;40.89;99077.75;5106736;27;20043;-31
2021/12/28 03:17:52;;;;;;;0.20;0.20;;;;;;;18.47;40.70;99068.66;5127184;28;20127;-33
2021/12/28 03:20:18;;;;;;;0.20;0.20;;;;;;;18.47;40.85;99065.09;5109337;28;20039;-31
2021/12/28 03:22:44;;;;;;;0.20;0.20;;;;;;;18.47;40.94;99068.66;5127324;28;20042;-33
2021/12/28 03:25:11;;;;;;;0.30;0.30;;;;;;;18.47;40.87;99068.66;5104528;28;20422;-33
2021/12/28 03:27:37;;;;;;;0.20;0.20;;;;;;;18.48;40.93;99072.25;5124880;28;20070;-33
2021/12/28 03:30:06;;;;;;;0.20;0.20;;;;;;;18.48;40.67;99066.72;5126241;28;20039;-33
2021/12/28 03:32:31;;;;;;;0.30;0.30;;;;;;;18.48;40.97;99069.47;5107944;28;20453;-31
2021/12/28 03:34:57;;;;;;;0.30;0.30;;;;;;;18.48;41.06;99067.56;5124808;27;20521;-33
2021/12/28 03:37:23;;;;;;;0.30;0.30;;;;;;;18.47;40.62;99065.91;5102262;28;20040;-31
2021/12/28 03:39:49;;;;;;;0.20;0.20;;;;;;;18.47;40.95;99057.66;5125572;28;20370;-35
2021/12/28 03:42:14;;;;;;;0.20;0.20;;;;;;;18.47;40.85;99056.84;5122130;28;20039;-34
2021/12/28 03:44:41;;;;;;;0.20;0.20;;;;;;;18.47;40.79;99051.31;5105633;28;21935;-33
2021/12/28 03:47:07;;;;;;;0.20;0.20;;;;;;;18.47;40.80;99045.81;5124275;28;20046;-32
2021/12/28 03:49:33;;;;;;;0.20;0.20;;;;;;;18.48;40.78;99039.16;5123881;28;20035;-33
2021/12/28 03:51:59;;;;;;;0.20;0.20;;;;;;;18.47;40.91;99046.63;5123000;28;20066;-32
2021/12/28 03:54:30;;;;;;;0.20;0.20;;;;;;;18.47;40.71;99041.09;5119782;28;20039;-32
2021/12/28 03:56:56;;;;;;;0.20;0.20;;;;;;;18.47;40.55;99034.78;5124587;28;20054;-31
2021/12/28 03:59:23;;;;;;;0.20;0.20;;;;;;;18.46;41.02;99033.97;5123874;28;20043;-32
2021/12/28 04:01:48;;;;;;;0.20;0.20;;;;;;;18.47;40.93;99034.78;5091747;28;20066;-33
2021/12/28 04:04:14;;;;;;;0.20;0.20;;;;;;;18.47;40.83;99038.34;5107139;28;20039;-33
2021/12/28 04:06:40;;;;;;;0.20;0.20;;;;;;;18.48;40.86;99028.13;5109083;28;20047;-33
2021/12/28 04:09:07;;;;;;;0.20;0.20;;;;;;;18.46;40.81;99031.22;5126902;28;20039;-33
2021/12/28 04:11:33;;;;;;;0.30;0.30;;;;;;;18.47;40.66;99023.75;5126044;28;20047;-31
2021/12/28 04:14:03;;;;;;;0.30;0.30;;;;;;;18.48;40.83;99022.63;5105135;28;20054;-32
2021/12/28 04:16:29;;;;;;;0.30;0.30;;;;;;;18.47;40.84;99021.81;5108166;28;20058;-31
2021/12/28 04:18:56;;;;;;;0.20;0.20;;;;;;;18.45;40.80;99024.09;5108404;28;20647;-33
2021/12/28 04:21:22;;;;;;;0.30;0.30;;;;;;;18.46;40.93;99024.91;5125324;28;20039;-33
2021/12/28 04:23:47;;;;;;;0.28;0.28;;;;;;;18.46;40.75;99016.63;5122431;28;20062;-33
2021/12/28 04:26:14;;;;;;;0.20;0.20;;;;;;;18.47;40.93;99002.53;5125346;28;20128;-33
2021/12/28 04:28:40;;;;;;;0.30;0.30;;;;;;;18.47;40.93;99002.53;5108277;28;20184;-33
2021/12/28 04:31:05;;;;;;;0.20;0.20;;;;;;;18.48;40.94;99006.09;5127095;28;20062;-32
2021/12/28 04:33:31;;;;;;;0.30;0.30;;;;;;;18.47;40.84;98996.19;5104917;28;20051;-34
2021/12/28 04:35:57;;;;;;;0.30;0.30;;;;;;;18.48;40.76;99000.56;5109530;28;20047;-31
2021/12/28 04:38:23;;;;;;;0.30;0.30;;;;;;;18.47;40.71;98996.19;5124454;28;20085;-33
2021/12/28 04:40:49;;;;;;;0.30;0.30;;;;;;;18.47;40.94;98996.19;5125240;28;20039;-36
2021/12/28 04:43:15;;;;;;;0.30;0.30;;;;;;;18.46;40.88;98989.88;5103021;28;20441;-33
2021/12/28 04:45:41;;;;;;;0.20;0.20;;;;;;;18.47;40.81;98988.75;5123594;28;20047;-31
2021/12/28 04:48:08;;;;;;;0.30;0.30;;;;;;;18.46;40.79;98992.63;5126147;28;20039;-32
2021/12/28 04:50:38;;;;;;;0.30;0.30;;;;;;;18.46;40.75;98984.38;5093634;28;20127;-32
2021/12/28 04:53:09;;;;;;;0.28;0.28;;;;;;;18.46;40.90;98983.56;5104426;28;20135;-32
2021/12/28 04:55:37;;;;;;;0.30;0.30;;;;;;;18.47;40.89;98983.22;5128659;28;20092;-33
2021/12/28 04:58:03;;;;;;;0.20;0.20;;;;;;;18.48;40.82;98984.03;5110532;28;20053;-35
2021/12/28 05:00:28;;;;;;;0.20;0.20;;;;;;;18.47;40.83;98985.19;5129928;28;20070;-33
2021/12/28 05:02:54;;;;;;;0.20;0.20;;;;;;;18.46;40.94;98986.31;5126208;28;20105;-31
2021/12/28 05:05:20;;;;;;;0.20;0.20;;;;;;;18.46;40.90;98981.59;5129001;28;20039;-34
2021/12/28 05:07:45;;;;;;;0.20;0.20;;;;;;;18.46;40.84;98978.84;5128541;28;20084;-32
2021/12/28 05:10:11;;;;;;;0.20;0.20;;;;;;;18.46;40.71;98976.09;5118244;28;20378;-35
2021/12/28 05:12:37;;;;;;;0.30;0.30;;;;;;;18.46;40.94;98981.59;5129670;28;20054;-32
2021/12/28 05:15:04;;;;;;;0.30;0.30;;;;;;;18.46;40.89;98984.38;5094485;27;20039;-33
2021/12/28 05:17:30;;;;;;;0.28;0.28;;;;;;;18.46;40.99;98978.03;5129840;28;20061;-32
2021/12/28 05:19:56;;;;;;;0.20;0.20;;;;;;;18.46;40.72;98978.03;5121785;28;20455;-33
2021/12/28 05:22:21;;;;;;;0.20;0.20;;;;;;;18.47;40.91;98974.16;5126780;28;20468;-33
2021/12/28 05:24:47;;;;;;;0.30;0.30;;;;;;;18.46;40.94;98973.34;5127509;28;20050;-32
2021/12/28 05:27:13;;;;;;;0.30;0.30;;;;;;;18.47;40.86;98974.16;5129232;28;20076;-34
2021/12/28 05:29:38;;;;;;;0.20;0.20;;;;;;;18.47;40.93;98974.97;5107655;28;20048;-31
2021/12/28 05:32:05;;;;;;;0.20;0.20;;;;;;;18.46;40.80;98978.03;5130244;28;20046;-31
2021/12/28 05:34:30;;;;;;;0.20;0.20;;;;;;;18.46;40.93;98973.34;5126132;28;20430;-33
2021/12/28 05:36:56;;;;;;;0.20;0.20;;;;;;;18.45;40.82;98963.47;5128544;28;20043;-32
2021/12/28 05:39:22;;;;;;;0.30;0.30;;;;;;;18.45;40.98;98963.47;5124356;28;20043;-35
2021/12/28 05:41:48;;;;;;;0.30;0.30;;;;;;;18.46;40.89;98962.31;5129283;28;20071;-33
2021/12/28 05:44:15;;;;;;;0.20;0.20;;;;;;;18.46;40.98;98953.25;5125413;28;20047;-31
2021/12/28 05:46:41;;;;;;;0.20;0.20;;;;;;;18.45;40.94;98955.19;5109710;28;20055;-33
2021/12/28 05:49:06;;;;;;;0.30;0.30;;;;;;;18.46;40.79;98961.50;5127126;28;20128;-33
2021/12/28 05:51:32;;;;;;;0.30;0.30;;;;;;;18.46;40.94;98959.56;5128356;28;20143;-34
2021/12/28 05:53:58;;;;;;;0.20;0.20;;;;;;;18.46;41.05;98956.00;5107149;28;20401;-32
2021/12/28 05:56:23;;;;;;;0.20;0.20;;;;;;;18.46;40.95;98950.47;5127389;28;20043;-33
2021/12/28 05:58:51;;;;;;;0.25;0.25;;;;;;;18.45;41.02;98960.69;5126597;27;20035;-31
2021/12/28 06:01:17;;;;;;;0.20;0.20;;;;;;;18.45;40.96;98954.38;5128708;28;20051;-33
2021/12/28 06:03:43;;;;;;;0.30;0.30;;;;;;;18.45;41.11;98963.47;5126973;28;20057;-31
2021/12/28 06:06:08;;;;;;;0.20;0.20;;;;;;;18.47;40.96;98954.84;5128639;28;20266;-35
2021/12/28 06:08:34;;;;;;;0.20;0.20;;;;;;;18.46;40.83;98954.06;5127690;28;20043;-31
2021/12/28 06:11:02;;;;;;;0.20;0.20;;;;;;;18.46;41.05;98948.53;5107943;28;20085;-32
2021/12/28 06:13:28;;;;;;;0.30;0.30;;;;;;;18.46;40.78;98956.81;5125200;28;20066;-32
2021/12/28 06:15:54;;;;;;;0.20;0.20;;;;;;;18.47;40.81;98946.59;5132267;27;20047;-33
2021/12/28 06:18:20;;;;;;;0.20;0.20;;;;;;;18.46;40.95;98944.97;5127927;28;20170;-33
2021/12/28 06:20:45;;;;;;;0.20;0.20;;;;;;;18.46;40.90;98948.53;5127461;28;20076;-33
2021/12/28 06:23:12;;;;;;;0.20;0.20;;;;;;;18.46;41.04;98948.53;5125953;28;21248;-32
2021/12/28 06:25:38;;;;;;;0.20;0.20;;;;;;;18.47;40.80;98949.34;5107934;28;20045;-33
2021/12/28 06:28:04;;;;;;;0.30;0.30;;;;;;;18.46;40.92;98956.81;5128552;28;20063;-32
2021/12/28 06:30:31;;;;;;;0.30;0.30;;;;;;;18.46;40.89;98947.72;5125520;28;20072;-32
2021/12/28 06:32:56;;;;;;;0.20;0.20;;;;;;;18.45;41.00;98938.66;5128234;28;20107;-31
2021/12/28 06:35:22;;;;;;;0.20;0.20;;;;;;;18.45;41.13;98944.16;5125187;28;20051;-33
2021/12/28 06:37:48;;;;;;;0.20;0.20;;;;;;;18.45;40.90;98930.38;5128032;28;20126;-33
2021/12/28 06:40:13;;;;;;;0.20;0.20;;;;;;;18.44;40.85;98937.03;5124172;28;20074;-31
2021/12/28 06:42:39;;;;;;;0.30;0.30;;;;;;;18.46;40.98;98942.22;5128426;28;20052;-33
2021/12/28 06:45:06;;;;;;;0.30;0.30;;;;;;;18.46;41.07;98943.03;5124966;28;20438;-32
2021/12/28 06:47:31;;;;;;;0.22;0.22;;;;;;;18.45;40.95;98955.19;5107765;28;20066;-34
2021/12/28 06:49:57;;;;;;;0.30;0.30;;;;;;;18.45;40.89;98941.41;5127333;28;20374;-31
2021/12/28 06:52:23;;;;;;;0.30;0.30;;;;;;;18.47;40.94;98943.81;5125508;28;20062;-31
2021/12/28 06:54:48;;;;;;;0.20;0.20;;;;;;;18.46;40.97;98961.50;5105609;28;20039;-31
2021/12/28 06:57:14;;;;;;;0.30;0.30;;;;;;;18.45;40.96;98955.19;5127787;28;20043;-31
2021/12/28 06:59:43;;;;;;;0.30;0.30;;;;;;;18.46;40.96;98961.50;5110098;28;20122;-31
2021/12/28 07:02:10;;;;;;;0.30;0.30;;;;;;;18.45;41.04;98963.47;5129424;28;20192;-31
2021/12/28 07:04:37;;;;;;;0.20;0.20;;;;;;;18.45;40.79;98960.69;5120241;28;20043;-31
2021/12/28 07:07:03;;;;;;;0.30;0.30;;;;;;;18.45;41.04;98954.38;5108325;28;20088;-32
2021/12/28 07:09:29;;;;;;;0.20;0.20;;;;;;;18.46;40.89;98954.06;5122817;27;20036;-31
2021/12/28 07:11:54;;;;;;;0.30;0.30;;;;;;;18.46;40.88;98953.25;5126316;28;20049;-31
2021/12/28 07:14:22;;;;;;;0.30;0.30;;;;;;;18.45;41.14;98955.19;5122006;27;20077;-31
2021/12/28 07:16:47;;;;;;;0.22;0.22;;;;;;;18.46;41.02;98954.06;5127394;28;20039;-32
2021/12/28 07:19:13;;;;;;;0.30;0.30;;;;;;;18.45;41.11;98949.69;5124997;28;20082;-31
2021/12/28 07:21:40;;;;;;;0.30;0.30;;;;;;;18.45;40.96;98943.34;5127796;28;20087;-31
2021/12/28 07:24:07;;;;;;;0.20;0.20;;;;;;;18.46;40.92;98950.47;5105747;28;20043;-31
2021/12/28 07:26:33;;;;;;;0.30;0.30;;;;;;;18.45;40.89;98941.41;5124545;28;20051;-31
2021/12/28 07:28:59;;;;;;;0.30;0.30;;;;;;;18.45;40.92;98946.91;5128211;28;20039;-31
2021/12/28 07:31:25;;;;;;;0.20;0.20;;;;;;;18.45;41.12;98941.41;5126938;28;20043;-31
2021/12/28 07:33:50;;;;;;;0.30;0.30;;;;;;;18.46;41.04;98934.75;5106541;28;20075;-31
2021/12/28 07:36:16;;;;;;;0.20;0.20;;;;;;;18.46;40.94;98928.44;5126288;28;20046;-31
2021/12/28 07:38:42;;;;;;;0.30;0.30;;;;;;;18.45;41.00;98904.78;5127956;28;20047;-31
2021/12/28 07:41:07;;;;;;;0.28;0.28;;;;;;;18.44;40.92;98901.22;5124763;28;20039;-31
2021/12/28 07:43:33;;;;;;;0.30;0.30;;;;;;;18.45;40.97;98908.34;5122027;28;20043;-31
2021/12/28 07:45:59;;;;;;;0.20;0.20;;;;;;;18.45;40.90;98915.78;5124022;28;20050;-32
2021/12/28 07:48:24;;;;;;;0.20;0.20;;;;;;;18.46;40.86;98931.19;5108654;28;20089;-31
2021/12/28 07:50:50;;;;;;;0.30;0.30;;;;;;;18.47;41.04;98921.78;5125587;28;20036;-32
2021/12/28 07:53:16;;;;;;;0.20;0.20;;;;;;;18.47;41.11;98924.53;5123827;28;20047;-31
2021/12/28 07:55:41;;;;;;;0.30;0.30;;;;;;;18.47;40.96;98927.28;5125280;28;20129;-31
2021/12/28 07:58:07;;;;;;;0.20;0.20;;;;;;;18.46;41.00;98931.19;5127095;28;20036;-32
2021/12/28 08:00:33;;;;;;;0.20;0.20;;;;;;;18.45;41.47;98937.84;5125312;28;20046;-31
2021/12/28 08:03:01;;;;;;;0.20;0.20;;;;;;;18.45;41.03;98944.16;5127509;28;20039;-32
2021/12/28 08:05:27;;;;;;;0.30;0.30;;;;;;;18.46;40.89;98951.28;5109456;28;20039;-31
2021/12/28 08:07:53;;;;;;;0.28;0.28;;;;;;;18.46;41.05;98956.00;5121859;28;20039;-32
2021/12/28 08:10:21;;;;;;;0.30;0.30;;;;;;;18.45;41.08;98955.19;5125665;28;20047;-32
2021/12/28 08:12:49;;;;;;;0.20;0.20;;;;;;;18.46;41.06;98956.00;5108982;28;20112;-31
2021/12/28 08:15:15;;;;;;;0.30;0.30;;;;;;;18.46;40.76;98958.75;5120677;28;20047;-31
2021/12/28 08:17:41;;;;;;;0.30;0.30;;;;;;;18.45;41.13;98960.69;5125348;27;20072;-31
2021/12/28 08:20:09;;;;;;;0.30;0.30;;;;;;;18.46;40.97;98961.50;5108729;28;20065;-33
2021/12/28 08:22:36;;;;;;;0.20;0.20;;;;;;;18.46;41.02;98964.25;5127439;28;20051;-31
2021/12/28 08:25:03;;;;;;;0.30;0.30;;;;;;;18.46;41.05;98958.75;5109897;28;20043;-31
2021/12/28 08:27:28;;;;;;;0.20;0.20;;;;;;;18.45;41.14;98966.22;5130475;28;20088;-34
2021/12/28 08:29:54;;;;;;;0.30;0.30;;;;;;;18.45;40.93;98949.69;5130750;28;20496;-33
2021/12/28 08:32:20;;;;;;;0.20;0.20;;;;;;;18.45;40.90;98954.38;5125414;28;20066;-32
2021/12/28 08:34:45;;;;;;;0.30;0.30;;;;;;;18.45;40.97;98957.94;5110027;28;20517;-32
2021/12/28 08:37:16;;;;;;;0.30;0.30;;;;;;;18.45;41.00;98954.38;5130587;28;20043;-33
2021/12/28 08:39:42;;;;;;;0.25;0.25;;;;;;;18.46;40.94;98950.47;5128508;28;20109;-34
2021/12/28 08:42:08;;;;;;;0.28;0.28;;;;;;;18.46;41.02;98944.97;5108997;28;20044;-32
2021/12/28 08:44:34;;;;;;;0.20;0.20;;;;;;;18.46;41.03;98950.47;5127413;28;20043;-31
2021/12/28 08:47:00;;;;;;;0.30;0.30;;;;;;;18.45;40.96;98949.69;5110192;28;20047;-33
2021/12/28 08:49:26;;;;;;;0.20;0.20;;;;;;;18.45;41.04;98946.13;5110409;28;20039;-31
2021/12/28 08:51:52;;;;;;;0.30;0.30;;;;;;;18.45;41.05;98949.69;5128378;28;20039;-31
2021/12/28 08:54:18;;;;;;;0.30;0.30;;;;;;;18.45;40.76;98946.91;5107982;28;20035;-31
2021/12/28 08:56:45;;;;;;;0.20;0.20;;;;;;;18.45;41.08;98952.44;5127173;28;20108;-31
2021/12/28 08:59:11;;;;;;;0.30;0.30;;;;;;;18.45;40.94;98949.69;5127605;28;20062;-32
2021/12/28 09:01:37;;;;;;;0.30;0.30;;;;;;;18.46;41.08;98942.22;5130408;28;20461;-33
2021/12/28 09:04:02;;;;;;;0.20;0.20;;;;;;;18.46;40.92;98944.97;5126522;28;20055;-31
2021/12/28 09:06:28;;;;;;;0.30;0.30;;;;;;;18.46;40.95;98942.22;5127215;28;20055;-32
2021/12/28 09:08:54;;;;;;;0.30;0.30;;;;;;;18.46;41.23;98942.22;5128102;28;20468;-33
2021/12/28 09:11:20;;;;;;;0.30;0.30;;;;;;;18.46;41.14;98942.22;5126685;28;20133;-32
2021/12/28 09:13:46;;;;;;;0.30;0.30;;;;;;;18.45;40.96;98935.91;5109350;28;20047;-32
2021/12/28 09:16:12;;;;;;;0.30;0.30;;;;;;;18.46;41.04;98933.94;5110492;28;20051;-35
2021/12/28 09:18:39;;;;;;;0.30;0.30;;;;;;;18.45;41.15;98933.13;5108641;28;20142;-31
2021/12/28 09:21:04;;;;;;;0.20;0.20;;;;;;;18.46;41.14;98928.44;5131263;28;20055;-31
2021/12/28 09:23:30;;;;;;;0.30;0.30;;;;;;;18.46;41.24;98929.25;5127758;28;20453;-32
2021/12/28 09:26:16;;;;;;;0.30;0.30;;;;;;;18.46;40.96;98926.47;5112564;28;20035;-31
2021/12/28 09:28:41;;;;;;;0.22;0.22;;;;;;;18.46;41.05;98925.69;5130444;28;20385;-33
2021/12/28 09:31:07;;;;;;;0.30;0.30;;;;;;;18.46;41.07;98925.69;5128977;28;20055;-32
2021/12/28 09:33:33;;;;;;;0.20;0.20;;;;;;;18.46;41.15;98920.16;5126800;27;20074;-31
2021/12/28 09:36:00;;;;;;;0.30;0.30;;;;;;;18.46;41.03;98923.72;5126175;28;20134;-33
2021/12/28 09:38:26;;;;;;;0.30;0.30;;;;;;;18.45;40.99;98927.63;5128336;28;20043;-33
2021/12/28 09:40:52;;;;;;;0.30;0.30;;;;;;;18.46;41.06;98920.16;5129185;28;20043;-32
2021/12/28 09:43:18;;;;;;;0.30;0.30;;;;;;;18.46;41.12;98923.72;5110955;28;20095;-31
2021/12/28 09:45:44;;;;;;;0.30;0.30;;;;;;;18.46;41.14;98915.47;5127981;28;20480;-31
2021/12/28 09:48:10;;;;;;;0.30;0.30;;;;;;;18.47;41.18;98913.50;5129282;28;20039;-31
2021/12/28 09:50:39;;;;;;;0.30;0.30;;;;;;;18.46;41.08;98920.16;5130450;28;20047;-33
2021/12/28 09:53:05;;;;;;;0.30;0.30;;;;;;;18.46;41.16;98920.97;5125547;28;20429;-33
2021/12/28 09:55:31;;;;;;;0.30;0.30;;;;;;;18.46;41.19;98920.16;5127916;28;20055;-34
2021/12/28 09:57:57;;;;;;;0.20;0.20;;;;;;;18.46;41.10;98920.97;5110096;28;20443;-31
2021/12/28 10:00:23;;;;;;;0.20;0.20;;;;;;;18.46;41.11;98920.97;5112131;28;20050;-31
2021/12/28 10:03:09;;;;;;;0.30;0.30;;;;;;;18.46;41.11;98922.91;5097471;28;20104;-31
2021/12/28 10:05:35;;;;;;;0.30;0.30;;;;;;;18.45;41.21;98921.31;5108794;28;20187;-32
2021/12/28 10:08:04;;;;;;;0.20;0.20;;;;;;;18.45;40.97;98916.59;5130309;28;20084;-31
2021/12/28 10:10:34;;;;;;;0.30;0.30;;;;;;;18.45;41.14;98916.59;5107440;28;20050;-32
2021/12/28 10:13:03;;;;;;;0.30;0.30;;;;;;;18.46;41.23;98912.72;5094155;28;20106;-31
2021/12/28 10:15:32;;;;;;;0.20;0.20;;;;;;;18.45;41.06;98907.53;5110195;28;20043;-33
2021/12/28 10:18:02;;;;;;;0.30;0.30;;;;;;;18.45;41.16;98908.34;5109477;28;20043;-32
2021/12/28 10:20:30;;;;;;;0.20;0.20;;;;;;;18.45;41.28;98894.56;5128134;28;20122;-31
2021/12/28 10:22:59;;;;;;;0.30;0.30;;;;;;;18.47;40.97;98895.03;5128382;28;20035;-33
2021/12/28 10:25:27;;;;;;;0.20;0.20;;;;;;;18.47;41.01;98895.03;5125640;28;20377;-32
2021/12/28 10:27:57;;;;;;;0.20;0.20;;;;;;;18.46;41.02;98878.81;5129792;28;20450;-32
2021/12/28 10:30:28;;;;;;;0.30;0.30;;;;;;;18.45;41.04;98872.50;5111518;28;20043;-31
2021/12/28 10:32:57;;;;;;;0.30;0.30;;;;;;;18.46;41.15;98870.56;5093617;28;20066;-33
2021/12/28 10:35:27;;;;;;;0.20;0.20;;;;;;;18.47;41.01;98874.94;5127973;28;20139;-33
2021/12/28 10:37:55;;;;;;;0.20;0.20;;;;;;;18.46;41.07;98865.03;5110424;28;20061;-32
2021/12/28 10:40:29;;;;;;;0.30;0.30;;;;;;;18.46;41.22;98862.28;5128403;28;20058;-31
2021/12/28 10:46:00;;;;;;;0.30;0.30;;;;;;;18.46;41.14;98846.56;5166298;27;20198;-31
2021/12/28 10:48:30;;;;;;;0.20;0.20;;;;;;;18.46;41.10;98845.75;5145461;27;20031;-31
2021/12/28 10:51:01;;;;;;;0.30;0.30;;;;;;;18.46;41.14;98843.81;5162176;27;20046;-32
2021/12/28 10:53:37;;;;;;;0.20;0.20;;;;;;;18.46;41.19;98849.31;5159464;27;20046;-31
2021/12/28 10:56:06;;;;;;;0.20;0.20;;;;;;;18.45;41.16;98838.63;5158521;27;20231;-32
2021/12/28 10:58:41;;;;;;;0.20;0.20;;;;;;;18.45;41.14;98828.41;5147461;27;20188;-31
2021/12/28 11:01:10;;;;;;;0.30;0.30;;;;;;;18.46;41.36;98826.47;5166729;27;20049;-31
2021/12/28 11:03:38;;;;;;;0.20;0.20;;;;;;;18.46;41.18;98819.00;5146213;27;20046;-32
2021/12/28 11:06:07;;;;;;;0.20;0.20;;;;;;;18.46;40.99;98809.91;5166119;27;20043;-32
2021/12/28 11:08:33;;;;;;;0.22;0.22;;;;;;;18.46;40.94;98807.97;5128290;27;20395;-32
2021/12/28 11:11:03;;;;;;;0.30;0.30;;;;;;;18.47;41.22;98811.53;5144092;27;20113;-32
2021/12/28 11:13:30;;;;;;;0.25;0.25;;;;;;;18.46;41.24;98802.47;5163786;27;20075;-31
2021/12/28 11:15:57;;;;;;;0.30;0.30;;;;;;;18.47;41.24;98808.78;5166871;27;20061;-32
2021/12/28 11:18:42;;;;;;;0.30;0.30;;;;;;;18.46;41.05;98796.94;5146276;27;20507;-32
2021/12/28 11:21:17;;;;;;;0.22;0.22;;;;;;;18.47;41.06;98795.00;5117469;27;20485;-34
2021/12/28 11:23:44;;;;;;;0.30;0.30;;;;;;;18.46;41.06;98794.19;5144432;27;20047;-31
2021/12/28 11:26:16;;;;;;;0.20;0.20;;;;;;;18.47;41.19;98800.50;5143770;27;20473;-32
2021/12/28 11:28:51;;;;;;;0.20;0.20;;;;;;;18.47;41.36;98786.72;5146607;27;20092;-33
2021/12/28 11:31:19;;;;;;;0.30;0.30;;;;;;;18.46;41.15;98780.41;5146636;27;20047;-31
2021/12/28 11:36:29;;;;;;;0.30;0.30;;;;;;;18.46;41.17;98768.56;5165774;27;20209;-32
2021/12/28 11:38:56;;;;;;;0.30;0.30;;;;;;;18.45;41.15;98764.22;5128874;27;20043;-33
2021/12/28 11:41:22;;;;;;;0.30;0.30;;;;;;;18.49;41.41;98760.47;5128725;27;20097;-43